sensor_id;sensor_type;location;lat;lon;timestamp;pressure;altitude;pressure_sealevel;temperature;humidity
72409;BME280;60402;48.082;11.628;2023-05-22T00:01:27;94940.06;;;14.65;95.86
72409;BME280;60402;48.082;11.628;2023-05-22T00:04:13;94930.44;;;14.63;96.31
72409;BME280;60402;48.082;11.628;2023-05-22T00:07:05;94924.22;;;14.49;96.13
72409;BME280;60402;48.082;11.628;2023-05-22T00:09:51;94919.94;;;14.21;98.29
72409;BME280;60402;48.082;11.628;2023-05-22T00:12:38;94936.63;;;14.28;98.14
72409;BME280;60402;48.082;11.628;2023-05-22T00:15:23;94918.91;;;14.09;98.93
72409;BME280;60402;48.082;11.628;2023-05-22T00:18:09;94933.09;;;14.09;98.77
72409;BME280;60402;48.082;11.628;2023-05-22T00:20:54;94925.06;;;14.07;98.25
72409;BME280;60402;48.082;11.628;2023-05-22T00:23:40;94940.19;;;14.14;98.33
72409;BME280;60402;48.082;11.628;2023-05-22T00:26:27;94924.47;;;14.03;98.30
72409;BME280;60402;48.082;11.628;2023-05-22T00:29:12;94931.41;;;14.02;97.68
72409;BME280;60402;48.082;11.628;2023-05-22T00:31:58;94923.22;;;13.95;98.53
72409;BME280;60402;48.082;11.628;2023-05-22T00:34:44;94942.78;;;14.02;98.71
72409;BME280;60402;48.082;11.628;2023-05-22T00:37:29;94927.34;;;13.94;98.39
72409;BME280;60402;48.082;11.628;2023-05-22T00:40:15;94943.75;;;13.90;98.91
72409;BME280;60402;48.082;11.628;2023-05-22T00:43:01;94928.69;;;13.75;99.34
72409;BME280;60402;48.082;11.628;2023-05-22T00:45:52;94931.19;;;13.73;100.00
72409;BME280;60402;48.082;11.628;2023-05-22T00:48:41;94911.84;;;13.62;100.00
72409;BME280;60402;48.082;11.628;2023-05-22T00:51:26;94918.97;;;13.58;99.65
72409;BME280;60402;48.082;11.628;2023-05-22T00:54:12;94910.56;;;13.63;98.98
72409;BME280;60402;48.082;11.628;2023-05-22T00:56:58;94925.91;;;13.57;99.33
72409;BME280;60402;48.082;11.628;2023-05-22T00:59:45;94907.81;;;13.36;99.92
72409;BME280;60402;48.082;11.628;2023-05-22T01:02:31;94932.25;;;13.42;100.00
72409;BME280;60402;48.082;11.628;2023-05-22T01:05:17;94927.84;;;13.41;100.00
72409;BME280;60402;48.082;11.628;2023-05-22T01:08:04;94930.81;;;13.47;99.71
72409;BME280;60402;48.082;11.628;2023-05-22T01:10:55;94936.19;;;13.36;100.00
72409;BME280;60402;48.082;11.628;2023-05-22T01:13:53;94914.31;;;13.18;100.00
72409;BME280;60402;48.082;11.628;2023-05-22T01:16:51;94942.81;;;13.42;100.00
72409;BME280;60402;48.082;11.628;2023-05-22T01:20:10;94925.16;;;13.19;99.34
72409;BME280;60402;48.082;11.628;2023-05-22T01:26:33;94946.47;;;13.24;99.94
72409;BME280;60402;48.082;11.628;2023-05-22T01:30:00;94953.56;;;13.28;99.31
72409;BME280;60402;48.082;11.628;2023-05-22T01:32:48;94946.63;;;13.02;100.00
72409;BME280;60402;48.082;11.628;2023-05-22T01:35:38;94959.06;;;12.95;100.00
72409;BME280;60402;48.082;11.628;2023-05-22T01:38:24;94936.69;;;12.97;100.00
72409;BME280;60402;48.082;11.628;2023-05-22T01:41:11;94962.34;;;13.12;99.89
72409;BME280;60402;48.082;11.628;2023-05-22T01:43:59;94949.44;;;13.02;99.83
72409;BME280;60402;48.082;11.628;2023-05-22T01:46:45;94950.09;;;12.88;100.00
72409;BME280;60402;48.082;11.628;2023-05-22T01:49:32;94960.16;;;12.79;100.00
72409;BME280;60402;48.082;11.628;2023-05-22T01:52:34;94952.91;;;12.60;100.00
72409;BME280;60402;48.082;11.628;2023-05-22T01:55:35;94966.88;;;12.36;100.00
72409;BME280;60402;48.082;11.628;2023-05-22T01:58:34;94960.44;;;12.45;100.00
72409;BME280;60402;48.082;11.628;2023-05-22T02:01:24;94957.59;;;12.45;100.00
72409;BME280;60402;48.082;11.628;2023-05-22T02:04:12;94955.91;;;12.47;100.00
72409;BME280;60402;48.082;11.628;2023-05-22T02:06:59;94967.25;;;12.66;100.00
72409;BME280;60402;48.082;11.628;2023-05-22T02:09:46;94957.63;;;12.54;100.00
72409;BME280;60402;48.082;11.628;2023-05-22T02:12:33;94946.41;;;12.32;100.00
72409;BME280;60402;48.082;11.628;2023-05-22T02:15:20;94961.88;;;12.49;100.00
72409;BME280;60402;48.082;11.628;2023-05-22T02:18:09;94954.94;;;12.50;100.00
72409;BME280;60402;48.082;11.628;2023-05-22T02:20:57;94962.38;;;12.57;100.00
72409;BME280;60402;48.082;11.628;2023-05-22T02:23:43;94952.72;;;12.45;100.00
72409;BME280;60402;48.082;11.628;2023-05-22T02:26:29;94973.53;;;12.51;100.00
72409;BME280;60402;48.082;11.628;2023-05-22T02:29:14;94972.09;;;12.56;100.00
72409;BME280;60402;48.082;11.628;2023-05-22T02:32:00;94963.91;;;12.40;100.00
72409;BME280;60402;48.082;11.628;2023-05-22T02:34:46;94960.75;;;12.38;100.00
72409;BME280;60402;48.082;11.628;2023-05-22T02:37:32;94969.59;;;12.49;100.00
72409;BME280;60402;48.082;11.628;2023-05-22T02:40:18;94966.44;;;12.47;100.00
72409;BME280;60402;48.082;11.628;2023-05-22T02:43:04;94955.09;;;12.38;100.00
72409;BME280;60402;48.082;11.628;2023-05-22T02:45:50;94973.19;;;12.40;100.00
72409;BME280;60402;48.082;11.628;2023-05-22T02:48:35;94963.22;;;12.17;100.00
72409;BME280;60402;48.082;11.628;2023-05-22T02:51:21;94962.22;;;12.02;100.00
72409;BME280;60402;48.082;11.628;2023-05-22T02:54:06;94957.16;;;11.97;100.00
72409;BME280;60402;48.082;11.628;2023-05-22T02:56:52;94947.06;;;11.87;100.00
72409;BME280;60402;48.082;11.628;2023-05-22T02:59:38;94935.22;;;11.79;100.00
72409;BME280;60402;48.082;11.628;2023-05-22T03:02:24;94941.44;;;11.96;100.00
72409;BME280;60402;48.082;11.628;2023-05-22T03:05:11;94948.66;;;11.88;100.00
72409;BME280;60402;48.082;11.628;2023-05-22T03:08:01;94953.75;;;11.80;100.00
72409;BME280;60402;48.082;11.628;2023-05-22T03:10:47;94950.53;;;11.60;100.00
72409;BME280;60402;48.082;11.628;2023-05-22T03:13:33;94953.00;;;11.48;100.00
72409;BME280;60402;48.082;11.628;2023-05-22T03:16:18;94956.44;;;11.43;100.00
72409;BME280;60402;48.082;11.628;2023-05-22T03:19:11;94963.88;;;11.28;100.00
72409;BME280;60402;48.082;11.628;2023-05-22T03:21:57;94981.50;;;11.32;100.00
72409;BME280;60402;48.082;11.628;2023-05-22T03:24:43;94969.41;;;11.10;100.00
72409;BME280;60402;48.082;11.628;2023-05-22T03:27:29;94963.56;;;11.04;100.00
72409;BME280;60402;48.082;11.628;2023-05-22T03:30:14;94969.81;;;10.99;100.00
72409;BME280;60402;48.082;11.628;2023-05-22T03:33:00;94976.31;;;11.09;100.00
72409;BME280;60402;48.082;11.628;2023-05-22T03:35:46;94983.22;;;11.30;100.00
72409;BME280;60402;48.082;11.628;2023-05-22T03:38:31;94978.22;;;11.12;100.00
72409;BME280;60402;48.082;11.628;2023-05-22T03:41:17;94971.53;;;10.96;100.00
72409;BME280;60402;48.082;11.628;2023-05-22T03:44:03;94974.00;;;10.94;100.00
72409;BME280;60402;48.082;11.628;2023-05-22T03:46:49;94979.00;;;10.90;100.00
72409;BME280;60402;48.082;11.628;2023-05-22T03:49:34;94981.19;;;11.08;100.00
72409;BME280;60402;48.082;11.628;2023-05-22T03:52:20;94979.75;;;11.25;100.00
72409;BME280;60402;48.082;11.628;2023-05-22T03:55:07;94957.47;;;11.06;100.00
72409;BME280;60402;48.082;11.628;2023-05-22T03:57:52;94965.19;;;11.14;100.00
72409;BME280;60402;48.082;11.628;2023-05-22T04:00:38;94985.81;;;11.46;100.00
72409;BME280;60402;48.082;11.628;2023-05-22T04:03:24;94978.00;;;11.50;100.00
72409;BME280;60402;48.082;11.628;2023-05-22T04:06:10;94993.09;;;11.78;100.00
72409;BME280;60402;48.082;11.628;2023-05-22T04:08:59;94986.06;;;11.83;99.10
72409;BME280;60402;48.082;11.628;2023-05-22T04:11:45;94971.66;;;11.68;100.00
72409;BME280;60402;48.082;11.628;2023-05-22T04:14:30;94992.59;;;11.80;100.00
72409;BME280;60402;48.082;11.628;2023-05-22T04:17:17;94983.09;;;11.86;99.89
72409;BME280;60402;48.082;11.628;2023-05-22T04:20:02;95002.03;;;12.08;100.00
72409;BME280;60402;48.082;11.628;2023-05-22T04:22:49;94986.91;;;12.01;100.00
72409;BME280;60402;48.082;11.628;2023-05-22T04:25:35;94973.38;;;11.96;99.83
72409;BME280;60402;48.082;11.628;2023-05-22T04:28:21;94999.38;;;12.13;99.14
72409;BME280;60402;48.082;11.628;2023-05-22T04:31:07;94999.09;;;12.20;99.08
72409;BME280;60402;48.082;11.628;2023-05-22T04:33:52;94984.31;;;12.25;98.48
72409;BME280;60402;48.082;11.628;2023-05-22T04:36:39;94993.81;;;12.41;99.12
72409;BME280;60402;48.082;11.628;2023-05-22T04:39:24;95006.59;;;12.54;98.28
72409;BME280;60402;48.082;11.628;2023-05-22T04:42:13;94989.41;;;12.40;98.15
72409;BME280;60402;48.082;11.628;2023-05-22T04:45:00;95000.41;;;12.28;99.28
72409;BME280;60402;48.082;11.628;2023-05-22T04:47:45;95003.91;;;12.60;98.86
72409;BME280;60402;48.082;11.628;2023-05-22T04:50:31;94994.50;;;12.82;96.92
72409;BME280;60402;48.082;11.628;2023-05-22T04:53:17;94986.47;;;12.71;96.17
72409;BME280;60402;48.082;11.628;2023-05-22T04:56:03;95010.91;;;12.96;96.35
72409;BME280;60402;48.082;11.628;2023-05-22T04:58:49;94998.81;;;13.23;95.28
72409;BME280;60402;48.082;11.628;2023-05-22T05:01:34;95010.44;;;13.52;94.16
72409;BME280;60402;48.082;11.628;2023-05-22T05:04:22;95001.56;;;13.69;92.69
72409;BME280;60402;48.082;11.628;2023-05-22T05:07:07;95005.09;;;14.06;92.11
72409;BME280;60402;48.082;11.628;2023-05-22T05:09:53;95006.53;;;14.35;90.78
72409;BME280;60402;48.082;11.628;2023-05-22T05:12:39;94985.69;;;14.38;89.74
72409;BME280;60402;48.082;11.628;2023-05-22T05:15:25;94994.16;;;14.56;89.66
72409;BME280;60402;48.082;11.628;2023-05-22T05:18:11;94997.91;;;14.86;88.95
72409;BME280;60402;48.082;11.628;2023-05-22T05:20:57;95009.34;;;15.01;88.47
72409;BME280;60402;48.082;11.628;2023-05-22T05:23:43;94998.47;;;15.14;87.86
72409;BME280;60402;48.082;11.628;2023-05-22T05:26:28;95013.47;;;15.39;87.50
72409;BME280;60402;48.082;11.628;2023-05-22T05:29:14;95009.75;;;15.47;87.53
72409;BME280;60402;48.082;11.628;2023-05-22T05:32:00;95002.03;;;15.63;86.20
72409;BME280;60402;48.082;11.628;2023-05-22T05:34:45;95001.06;;;15.66;86.25
72409;BME280;60402;48.082;11.628;2023-05-22T05:37:31;95012.09;;;15.88;85.33
72409;BME280;60402;48.082;11.628;2023-05-22T05:40:17;95011.97;;;15.97;84.18
72409;BME280;60402;48.082;11.628;2023-05-22T05:43:02;95009.03;;;16.06;84.37
72409;BME280;60402;48.082;11.628;2023-05-22T05:45:48;95017.19;;;16.28;83.18
72409;BME280;60402;48.082;11.628;2023-05-22T05:48:34;95019.78;;;16.46;83.17
72409;BME280;60402;48.082;11.628;2023-05-22T05:51:19;95011.28;;;16.67;82.60
72409;BME280;60402;48.082;11.628;2023-05-22T05:54:06;95025.63;;;17.07;80.71
72409;BME280;60402;48.082;11.628;2023-05-22T05:56:52;95028.00;;;17.29;80.34
72409;BME280;60402;48.082;11.628;2023-05-22T05:59:37;95027.91;;;17.44;79.59
72409;BME280;60402;48.082;11.628;2023-05-22T06:02:23;95031.09;;;17.72;78.55
72409;BME280;60402;48.082;11.628;2023-05-22T06:05:09;95023.66;;;18.06;78.01
72409;BME280;60402;48.082;11.628;2023-05-22T06:07:55;95025.13;;;18.91;73.81
72409;BME280;60402;48.082;11.628;2023-05-22T06:10:42;95025.63;;;19.98;68.27
72409;BME280;60402;48.082;11.628;2023-05-22T06:13:28;95021.50;;;20.15;66.91
72409;BME280;60402;48.082;11.628;2023-05-22T06:16:13;95011.81;;;20.02;66.58
72409;BME280;60402;48.082;11.628;2023-05-22T06:18:59;95005.34;;;20.29;65.41
72409;BME280;60402;48.082;11.628;2023-05-22T06:21:45;95025.72;;;20.48;64.55
72409;BME280;60402;48.082;11.628;2023-05-22T06:24:30;95025.94;;;20.84;62.95
72409;BME280;60402;48.082;11.628;2023-05-22T06:27:16;95011.84;;;20.91;61.52
72409;BME280;60402;48.082;11.628;2023-05-22T06:30:02;95029.91;;;22.25;58.39
72409;BME280;60402;48.082;11.628;2023-05-22T06:32:48;95029.81;;;22.72;55.90
72409;BME280;60402;48.082;11.628;2023-05-22T06:35:34;95020.56;;;23.15;54.98
72409;BME280;60402;48.082;11.628;2023-05-22T06:38:19;95027.13;;;23.15;55.39
72409;BME280;60402;48.082;11.628;2023-05-22T06:41:06;95031.53;;;22.92;56.14
72409;BME280;60402;48.082;11.628;2023-05-22T06:43:52;95021.63;;;22.52;57.60
72409;BME280;60402;48.082;11.628;2023-05-22T06:46:37;95030.69;;;22.61;57.94
72409;BME280;60402;48.082;11.628;2023-05-22T06:49:23;95012.91;;;22.27;57.57
72409;BME280;60402;48.082;11.628;2023-05-22T06:52:09;95011.31;;;22.32;57.09
72409;BME280;60402;48.082;11.628;2023-05-22T06:54:55;95028.09;;;22.58;57.05
72409;BME280;60402;48.082;11.628;2023-05-22T06:57:48;95040.56;;;22.71;57.51
72409;BME280;60402;48.082;11.628;2023-05-22T07:00:34;95021.69;;;23.06;56.48
72409;BME280;60402;48.082;11.628;2023-05-22T07:03:20;95026.19;;;23.75;53.85
72409;BME280;60402;48.082;11.628;2023-05-22T07:06:05;95045.38;;;25.31;51.35
72409;BME280;60402;48.082;11.628;2023-05-22T07:08:52;95037.00;;;27.02;46.72
72409;BME280;60402;48.082;11.628;2023-05-22T07:11:38;95030.84;;;29.23;41.75
72409;BME280;60402;48.082;11.628;2023-05-22T07:14:23;95038.34;;;30.66;38.35
72409;BME280;60402;48.082;11.628;2023-05-22T07:17:09;95048.59;;;31.47;35.88
72409;BME280;60402;48.082;11.628;2023-05-22T07:19:54;95044.34;;;32.77;33.47
72409;BME280;60402;48.082;11.628;2023-05-22T07:22:40;95035.50;;;33.12;32.53
72409;BME280;60402;48.082;11.628;2023-05-22T07:25:26;95052.03;;;33.17;32.55
72409;BME280;60402;48.082;11.628;2023-05-22T07:28:11;95045.47;;;34.10;30.97
72409;BME280;60402;48.082;11.628;2023-05-22T07:30:57;95052.94;;;34.40;30.40
72409;BME280;60402;48.082;11.628;2023-05-22T07:33:43;95054.97;;;34.56;30.52
72409;BME280;60402;48.082;11.628;2023-05-22T07:36:28;95039.31;;;35.22;29.55
72409;BME280;60402;48.082;11.628;2023-05-22T07:39:16;95049.81;;;34.28;29.54
72409;BME280;60402;48.082;11.628;2023-05-22T07:42:01;95040.88;;;35.03;29.71
72409;BME280;60402;48.082;11.628;2023-05-22T07:44:49;95051.13;;;33.88;30.50
72409;BME280;60402;48.082;11.628;2023-05-22T07:47:34;95055.69;;;33.72;30.34
72409;BME280;60402;48.082;11.628;2023-05-22T07:50:20;95048.22;;;35.33;28.91
72409;BME280;60402;48.082;11.628;2023-05-22T07:53:06;95042.91;;;35.61;28.19
72409;BME280;60402;48.082;11.628;2023-05-22T07:55:51;95050.53;;;36.17;28.06
72409;BME280;60402;48.082;11.628;2023-05-22T07:58:37;95048.31;;;34.85;28.48
72409;BME280;60402;48.082;11.628;2023-05-22T08:01:24;95057.84;;;36.58;27.21
72409;BME280;60402;48.082;11.628;2023-05-22T08:04:10;95061.25;;;36.98;27.18
72409;BME280;60402;48.082;11.628;2023-05-22T08:06:55;95048.59;;;36.52;26.70
72409;BME280;60402;48.082;11.628;2023-05-22T08:09:41;95048.44;;;36.29;28.16
72409;BME280;60402;48.082;11.628;2023-05-22T08:12:30;95052.88;;;36.08;27.83
72409;BME280;60402;48.082;11.628;2023-05-22T08:15:16;95044.53;;;35.74;28.67
72409;BME280;60402;48.082;11.628;2023-05-22T08:18:02;95037.19;;;34.45;29.50
72409;BME280;60402;48.082;11.628;2023-05-22T08:20:47;95038.75;;;34.46;29.65
72409;BME280;60402;48.082;11.628;2023-05-22T08:23:33;95047.81;;;32.66;32.70
72409;BME280;60402;48.082;11.628;2023-05-22T08:26:20;95048.13;;;32.18;34.63
72409;BME280;60402;48.082;11.628;2023-05-22T08:29:07;95043.41;;;30.73;35.89
72409;BME280;60402;48.082;11.628;2023-05-22T08:31:53;95024.09;;;30.37;37.48
72409;BME280;60402;48.082;11.628;2023-05-22T08:34:41;95051.78;;;30.61;37.33
72409;BME280;60402;48.082;11.628;2023-05-22T08:37:27;95020.69;;;30.64;37.43
72409;BME280;60402;48.082;11.628;2023-05-22T08:40:13;95033.91;;;30.65;37.55
72409;BME280;60402;48.082;11.628;2023-05-22T08:42:59;95035.13;;;29.29;40.28
72409;BME280;60402;48.082;11.628;2023-05-22T08:45:47;95026.38;;;29.37;39.55
72409;BME280;60402;48.082;11.628;2023-05-22T08:48:37;95035.13;;;29.52;40.47
72409;BME280;60402;48.082;11.628;2023-05-22T08:51:27;95036.06;;;29.09;40.93
72409;BME280;60402;48.082;11.628;2023-05-22T08:54:14;95033.56;;;29.44;39.87
72409;BME280;60402;48.082;11.628;2023-05-22T08:57:03;95028.53;;;28.55;41.47
72409;BME280;60402;48.082;11.628;2023-05-22T08:59:50;95011.34;;;28.72;42.47
72409;BME280;60402;48.082;11.628;2023-05-22T09:02:37;95034.31;;;28.39;42.30
72409;BME280;60402;48.082;11.628;2023-05-22T09:05:23;95020.66;;;28.78;42.45
72409;BME280;60402;48.082;11.628;2023-05-22T09:08:11;95002.41;;;28.62;42.08
72409;BME280;60402;48.082;11.628;2023-05-22T09:10:56;95023.56;;;28.19;43.67
72409;BME280;60402;48.082;11.628;2023-05-22T09:13:42;95029.09;;;28.38;44.26
72409;BME280;60402;48.082;11.628;2023-05-22T09:16:29;95021.44;;;28.71;42.41
72409;BME280;60402;48.082;11.628;2023-05-22T09:19:14;95025.47;;;28.16;42.64
72409;BME280;60402;48.082;11.628;2023-05-22T09:22:01;95024.22;;;28.04;43.24
72409;BME280;60402;48.082;11.628;2023-05-22T09:24:48;95033.41;;;28.52;44.14
72409;BME280;60402;48.082;11.628;2023-05-22T09:27:34;95027.94;;;28.48;42.92
72409;BME280;60402;48.082;11.628;2023-05-22T09:30:20;95023.78;;;28.28;44.59
72409;BME280;60402;48.082;11.628;2023-05-22T09:33:06;95009.22;;;28.21;44.52
72409;BME280;60402;48.082;11.628;2023-05-22T09:35:53;95035.72;;;28.10;43.94
72409;BME280;60402;48.082;11.628;2023-05-22T09:38:39;95029.31;;;28.11;44.17
72409;BME280;60402;48.082;11.628;2023-05-22T09:41:24;95011.53;;;27.79;43.01
72409;BME280;60402;48.082;11.628;2023-05-22T09:44:13;95027.84;;;27.89;42.98
72409;BME280;60402;48.082;11.628;2023-05-22T09:46:59;95020.28;;;27.58;44.62
72409;BME280;60402;48.082;11.628;2023-05-22T09:49:45;95005.09;;;27.44;45.71
72409;BME280;60402;48.082;11.628;2023-05-22T09:52:34;95027.09;;;27.39;44.63
72409;BME280;60402;48.082;11.628;2023-05-22T09:55:21;95035.81;;;27.18;47.16
72409;BME280;60402;48.082;11.628;2023-05-22T09:58:12;95014.78;;;26.84;48.83
72409;BME280;60402;48.082;11.628;2023-05-22T10:00:59;95016.69;;;26.81;47.79
72409;BME280;60402;48.082;11.628;2023-05-22T10:03:46;95017.19;;;26.93;47.52
72409;BME280;60402;48.082;11.628;2023-05-22T10:06:32;95025.88;;;26.93;47.89
72409;BME280;60402;48.082;11.628;2023-05-22T10:09:23;95029.66;;;27.01;48.84
72409;BME280;60402;48.082;11.628;2023-05-22T10:12:11;95013.16;;;26.96;47.31
72409;BME280;60402;48.082;11.628;2023-05-22T10:15:00;95020.78;;;26.86;48.39
72409;BME280;60402;48.082;11.628;2023-05-22T10:17:48;95027.94;;;27.06;45.41
72409;BME280;60402;48.082;11.628;2023-05-22T10:20:34;95017.25;;;27.00;47.37
72409;BME280;60402;48.082;11.628;2023-05-22T10:23:20;95004.66;;;26.56;47.86
72409;BME280;60402;48.082;11.628;2023-05-22T10:26:07;95026.28;;;26.76;49.55
72409;BME280;60402;48.082;11.628;2023-05-22T10:29:08;95011.22;;;26.57;47.48
72409;BME280;60402;48.082;11.628;2023-05-22T10:32:11;94994.88;;;26.46;49.00
72409;BME280;60402;48.082;11.628;2023-05-22T10:35:15;94999.19;;;26.53;49.20
72409;BME280;60402;48.082;11.628;2023-05-22T10:40:51;94989.47;;;26.63;48.00
72409;BME280;60402;48.082;11.628;2023-05-22T10:43:39;95007.34;;;26.54;48.47
72409;BME280;60402;48.082;11.628;2023-05-22T10:46:31;95001.34;;;26.73;48.57
72409;BME280;60402;48.082;11.628;2023-05-22T10:49:24;95006.25;;;26.44;49.11
72409;BME280;60402;48.082;11.628;2023-05-22T10:52:10;95011.31;;;26.64;46.72
72409;BME280;60402;48.082;11.628;2023-05-22T10:54:59;94996.22;;;26.45;48.14
72409;BME280;60402;48.082;11.628;2023-05-22T10:57:45;94993.88;;;26.43;49.96
72409;BME280;60402;48.082;11.628;2023-05-22T11:00:31;94990.66;;;26.47;47.29
72409;BME280;60402;48.082;11.628;2023-05-22T11:03:19;94995.00;;;26.40;48.23
72409;BME280;60402;48.082;11.628;2023-05-22T11:06:05;94991.41;;;26.13;50.17
72409;BME280;60402;48.082;11.628;2023-05-22T11:08:54;94982.44;;;26.24;48.63
72409;BME280;60402;48.082;11.628;2023-05-22T11:11:40;95001.78;;;26.43;48.10
72409;BME280;60402;48.082;11.628;2023-05-22T11:14:26;95001.59;;;26.28;49.57
72409;BME280;60402;48.082;11.628;2023-05-22T11:17:11;95005.38;;;26.36;49.63
72409;BME280;60402;48.082;11.628;2023-05-22T11:20:20;94994.88;;;26.46;52.11
72409;BME280;60402;48.082;11.628;2023-05-22T11:23:08;94989.47;;;26.63;48.98
72409;BME280;60402;48.082;11.628;2023-05-22T11:25:54;94967.88;;;26.17;48.69
72409;BME280;60402;48.082;11.628;2023-05-22T11:28:40;94985.88;;;26.02;49.65
72409;BME280;60402;48.082;11.628;2023-05-22T11:31:28;94973.84;;;25.45;50.78
72409;BME280;60402;48.082;11.628;2023-05-22T11:34:13;94964.38;;;25.05;52.38
72409;BME280;60402;48.082;11.628;2023-05-22T11:37:00;94976.97;;;25.60;51.22
72409;BME280;60402;48.082;11.628;2023-05-22T11:39:54;94992.75;;;25.72;51.10
72409;BME280;60402;48.082;11.628;2023-05-22T11:42:41;94976.88;;;25.79;53.63
72409;BME280;60402;48.082;11.628;2023-05-22T11:45:26;94972.38;;;26.05;51.38
72409;BME280;60402;48.082;11.628;2023-05-22T11:48:12;94975.25;;;26.05;52.45
72409;BME280;60402;48.082;11.628;2023-05-22T11:50:58;94957.59;;;25.82;51.09
72409;BME280;60402;48.082;11.628;2023-05-22T11:53:43;94951.69;;;25.87;51.98
72409;BME280;60402;48.082;11.628;2023-05-22T11:56:29;94958.44;;;26.16;53.77
72409;BME280;60402;48.082;11.628;2023-05-22T11:59:15;94956.31;;;26.17;50.31
72409;BME280;60402;48.082;11.628;2023-05-22T12:02:00;94953.47;;;25.90;52.67
72409;BME280;60402;48.082;11.628;2023-05-22T12:04:46;94975.81;;;26.16;50.87
72409;BME280;60402;48.082;11.628;2023-05-22T12:07:32;94969.75;;;26.28;49.93
72409;BME280;60402;48.082;11.628;2023-05-22T12:10:18;94966.22;;;26.21;53.01
72409;BME280;60402;48.082;11.628;2023-05-22T12:13:03;94969.84;;;26.35;52.20
72409;BME280;60402;48.082;11.628;2023-05-22T12:15:51;94948.63;;;26.06;51.30
72409;BME280;60402;48.082;11.628;2023-05-22T12:18:37;94956.16;;;25.75;51.32
72409;BME280;60402;48.082;11.628;2023-05-22T12:21:22;94965.47;;;26.08;53.42
72409;BME280;60402;48.082;11.628;2023-05-22T12:24:08;94960.69;;;26.44;51.48
72409;BME280;60402;48.082;11.628;2023-05-22T12:26:55;94944.78;;;26.24;51.78
72409;BME280;60402;48.082;11.628;2023-05-22T12:29:41;94954.00;;;26.36;51.62
72409;BME280;60402;48.082;11.628;2023-05-22T12:32:28;94949.59;;;25.74;50.83
72409;BME280;60402;48.082;11.628;2023-05-22T12:35:14;94963.69;;;26.05;50.29
72409;BME280;60402;48.082;11.628;2023-05-22T12:38:01;94960.34;;;26.00;49.97
72409;BME280;60402;48.082;11.628;2023-05-22T12:40:47;94926.03;;;26.05;50.31
72409;BME280;60402;48.082;11.628;2023-05-22T12:43:34;94944.41;;;26.07;52.69
72409;BME280;60402;48.082;11.628;2023-05-22T12:46:19;94956.16;;;25.62;51.18
72409;BME280;60402;48.082;11.628;2023-05-22T12:49:05;94930.34;;;25.64;52.47
72409;BME280;60402;48.082;11.628;2023-05-22T12:51:51;94928.03;;;26.10;51.81
72409;BME280;60402;48.082;11.628;2023-05-22T12:54:36;94937.69;;;26.25;51.62
72409;BME280;60402;48.082;11.628;2023-05-22T12:57:22;94915.28;;;26.26;50.18
72409;BME280;60402;48.082;11.628;2023-05-22T13:00:08;94940.97;;;26.30;48.88
72409;BME280;60402;48.082;11.628;2023-05-22T13:02:54;94934.22;;;26.27;49.42
72409;BME280;60402;48.082;11.628;2023-05-22T13:05:40;94923.69;;;25.69;50.31
72409;BME280;60402;48.082;11.628;2023-05-22T13:08:25;94908.31;;;25.74;48.79
72409;BME280;60402;48.082;11.628;2023-05-22T13:11:11;94925.47;;;26.06;49.00
72409;BME280;60402;48.082;11.628;2023-05-22T13:13:57;94922.34;;;26.17;47.16
72409;BME280;60402;48.082;11.628;2023-05-22T13:16:42;94926.78;;;25.84;47.20
72409;BME280;60402;48.082;11.628;2023-05-22T13:19:28;94918.81;;;26.11;47.00
72409;BME280;60402;48.082;11.628;2023-05-22T13:22:14;94896.75;;;25.61;46.70
72409;BME280;60402;48.082;11.628;2023-05-22T13:25:00;94912.03;;;25.95;44.46
72409;BME280;60402;48.082;11.628;2023-05-22T13:27:45;94916.19;;;26.21;45.95
72409;BME280;60402;48.082;11.628;2023-05-22T13:30:31;94910.31;;;26.13;46.96
72409;BME280;60402;48.082;11.628;2023-05-22T13:33:17;94901.50;;;26.19;48.39
72409;BME280;60402;48.082;11.628;2023-05-22T13:36:03;94902.00;;;26.31;47.76
72409;BME280;60402;48.082;11.628;2023-05-22T13:38:48;94917.44;;;26.46;46.58
72409;BME280;60402;48.082;11.628;2023-05-22T13:41:34;94907.84;;;26.52;43.86
72409;BME280;60402;48.082;11.628;2023-05-22T13:44:19;94883.97;;;26.04;44.38
72409;BME280;60402;48.082;11.628;2023-05-22T13:47:06;94894.59;;;25.88;45.35
72409;BME280;60402;48.082;11.628;2023-05-22T13:49:51;94898.72;;;26.47;46.73
72409;BME280;60402;48.082;11.628;2023-05-22T13:52:37;94892.53;;;26.30;46.43
72409;BME280;60402;48.082;11.628;2023-05-22T13:55:23;94887.50;;;26.10;48.43
72409;BME280;60402;48.082;11.628;2023-05-22T13:58:08;94911.06;;;26.48;48.54
72409;BME280;60402;48.082;11.628;2023-05-22T14:00:54;94908.03;;;26.54;48.57
72409;BME280;60402;48.082;11.628;2023-05-22T14:03:40;94871.63;;;26.24;47.87
72409;BME280;60402;48.082;11.628;2023-05-22T14:06:26;94903.53;;;26.45;48.56
72409;BME280;60402;48.082;11.628;2023-05-22T14:09:12;94889.00;;;26.24;49.45
72409;BME280;60402;48.082;11.628;2023-05-22T14:11:57;94878.56;;;26.21;49.07
72409;BME280;60402;48.082;11.628;2023-05-22T14:14:43;94888.66;;;26.48;48.80
72409;BME280;60402;48.082;11.628;2023-05-22T14:17:29;94894.28;;;26.33;48.40
72409;BME280;60402;48.082;11.628;2023-05-22T14:20:14;94874.06;;;25.99;47.94
72409;BME280;60402;48.082;11.628;2023-05-22T14:23:00;94889.94;;;26.40;48.25
72409;BME280;60402;48.082;11.628;2023-05-22T14:25:46;94896.38;;;26.46;48.68
72409;BME280;60402;48.082;11.628;2023-05-22T14:28:31;94893.16;;;26.49;46.89
72409;BME280;60402;48.082;11.628;2023-05-22T14:31:17;94900.41;;;26.43;46.00
72409;BME280;60402;48.082;11.628;2023-05-22T14:34:03;94899.59;;;26.21;45.68
72409;BME280;60402;48.082;11.628;2023-05-22T14:36:48;94888.25;;;25.89;45.39